sensor_id;sensor_type;location;lat;lon;timestamp;pressure;altitude;pressure_sealevel;temperature;humidity
77776;BME280;66965;43.328;6.668;2023-03-05T00:00:33;101355.63;;;10.13;51.85
77776;BME280;66965;43.328;6.668;2023-03-05T00:02:58;101360.03;;;10.04;51.98
77776;BME280;66965;43.328;6.668;2023-03-05T00:05:24;101364.34;;;10.10;52.23
77776;BME280;66965;43.328;6.668;2023-03-05T00:07:49;101354.94;;;9.89;52.69
77776;BME280;66965;43.328;6.668;2023-03-05T00:10:15;101355.22;;;9.61;52.31
77776;BME280;66965;43.328;6.668;2023-03-05T00:12:40;101365.59;;;9.71;53.76
77776;BME280;66965;43.328;6.668;2023-03-05T00:15:06;101359.63;;;9.56;53.94
77776;BME280;66965;43.328;6.668;2023-03-05T00:17:32;101357.16;;;9.37;54.36
77776;BME280;66965;43.328;6.668;2023-03-05T00:19:58;101360.53;;;9.53;54.38
77776;BME280;66965;43.328;6.668;2023-03-05T00:22:23;101362.16;;;9.66;52.90
77776;BME280;66965;43.328;6.668;2023-03-05T00:24:49;101365.66;;;9.65;53.86
77776;BME280;66965;43.328;6.668;2023-03-05T00:27:15;101361.56;;;9.29;54.29
77776;BME280;66965;43.328;6.668;2023-03-05T00:29:41;101357.13;;;9.45;53.89
77776;BME280;66965;43.328;6.668;2023-03-05T00:32:06;101363.16;;;9.53;54.07
77776;BME280;66965;43.328;6.668;2023-03-05T00:34:32;101354.41;;;9.51;54.42
77776;BME280;66965;43.328;6.668;2023-03-05T00:36:57;101357.00;;;9.54;54.39
77776;BME280;66965;43.328;6.668;2023-03-05T00:39:23;101362.41;;;9.36;54.58
77776;BME280;66965;43.328;6.668;2023-03-05T00:41:48;101360.84;;;9.08;56.56
77776;BME280;66965;43.328;6.668;2023-03-05T00:44:14;101356.63;;;8.93;56.77
77776;BME280;66965;43.328;6.668;2023-03-05T00:46:40;101358.41;;;8.85;58.09
77776;BME280;66965;43.328;6.668;2023-03-05T00:49:05;101359.22;;;8.96;57.72
77776;BME280;66965;43.328;6.668;2023-03-05T00:51:31;101361.81;;;8.96;57.93
77776;BME280;66965;43.328;6.668;2023-03-05T00:53:57;101362.69;;;8.93;57.71
77776;BME280;66965;43.328;6.668;2023-03-05T00:56:22;101361.81;;;8.94;58.51
77776;BME280;66965;43.328;6.668;2023-03-05T00:58:48;101359.22;;;8.88;59.78
77776;BME280;66965;43.328;6.668;2023-03-05T01:01:13;101365.31;;;8.92;59.35
77776;BME280;66965;43.328;6.668;2023-03-05T01:03:39;101362.72;;;8.90;58.62
77776;BME280;66965;43.328;6.668;2023-03-05T01:06:07;101367.06;;;8.96;58.38
77776;BME280;66965;43.328;6.668;2023-03-05T01:08:33;101367.00;;;9.07;58.99
77776;BME280;66965;43.328;6.668;2023-03-05T01:10:59;101367.81;;;9.12;58.89
77776;BME280;66965;43.328;6.668;2023-03-05T01:13:24;101359.13;;;9.07;59.42
77776;BME280;66965;43.328;6.668;2023-03-05T01:15:49;101358.41;;;8.80;60.64
77776;BME280;66965;43.328;6.668;2023-03-05T01:18:16;101352.28;;;8.86;61.44
77776;BME280;66965;43.328;6.668;2023-03-05T01:20:42;101348.72;;;8.98;59.92
77776;BME280;66965;43.328;6.668;2023-03-05T01:23:07;101344.28;;;9.07;60.16
77776;BME280;66965;43.328;6.668;2023-03-05T01:25:33;101338.28;;;8.94;60.28
77776;BME280;66965;43.328;6.668;2023-03-05T01:27:58;101339.22;;;8.83;59.81
77776;BME280;66965;43.328;6.668;2023-03-05T01:30:24;101332.34;;;8.67;61.43
77776;BME280;66965;43.328;6.668;2023-03-05T01:32:49;101338.53;;;8.52;61.60
77776;BME280;66965;43.328;6.668;2023-03-05T01:35:17;101332.38;;;8.61;62.58
77776;BME280;66965;43.328;6.668;2023-03-05T01:37:43;101336.66;;;8.78;62.40
77776;BME280;66965;43.328;6.668;2023-03-05T01:40:10;101335.78;;;8.75;62.47
77776;BME280;66965;43.328;6.668;2023-03-05T01:42:37;101329.69;;;8.74;62.67
77776;BME280;66965;43.328;6.668;2023-03-05T01:47:31;101317.56;;;8.61;62.44
77776;BME280;66965;43.328;6.668;2023-03-05T01:49:56;101317.56;;;8.63;62.46
77776;BME280;66965;43.328;6.668;2023-03-05T01:52:23;101317.56;;;8.63;62.68
77776;BME280;66965;43.328;6.668;2023-03-05T01:54:55;101315.88;;;8.51;63.73
77776;BME280;66965;43.328;6.668;2023-03-05T01:57:30;101311.50;;;8.56;63.55
77776;BME280;66965;43.328;6.668;2023-03-05T02:00:00;101307.22;;;8.46;63.65
77776;BME280;66965;43.328;6.668;2023-03-05T02:02:27;101312.38;;;8.57;63.45
77776;BME280;66965;43.328;6.668;2023-03-05T02:05:02;101310.63;;;8.63;63.23
77776;BME280;66965;43.328;6.668;2023-03-05T02:07:29;101313.25;;;8.60;63.38
77776;BME280;66965;43.328;6.668;2023-03-05T02:09:54;101310.66;;;8.50;64.70
77776;BME280;66965;43.328;6.668;2023-03-05T02:12:20;101312.38;;;8.55;63.61
77776;BME280;66965;43.328;6.668;2023-03-05T02:14:47;101302.88;;;8.44;63.79
77776;BME280;66965;43.328;6.668;2023-03-05T02:17:14;101302.88;;;8.42;64.55
77776;BME280;66965;43.328;6.668;2023-03-05T02:19:54;101302.94;;;8.18;64.61
77776;BME280;66965;43.328;6.668;2023-03-05T02:22:22;101296.81;;;8.34;65.20
77776;BME280;66965;43.328;6.668;2023-03-05T02:24:49;101301.19;;;8.18;65.47
77776;BME280;66965;43.328;6.668;2023-03-05T02:27:15;101291.66;;;8.04;65.54
77776;BME280;66965;43.328;6.668;2023-03-05T02:29:43;101299.50;;;8.08;67.19
77776;BME280;66965;43.328;6.668;2023-03-05T02:32:10;101289.91;;;8.10;66.31
77776;BME280;66965;43.328;6.668;2023-03-05T02:34:36;101288.13;;;8.17;66.62
77776;BME280;66965;43.328;6.668;2023-03-05T02:37:02;101273.31;;;8.26;66.76
77776;BME280;66965;43.328;6.668;2023-03-05T02:39:30;101271.69;;;7.97;66.30
77776;BME280;66965;43.328;6.668;2023-03-05T02:41:55;101281.19;;;8.13;67.79
77776;BME280;66965;43.328;6.668;2023-03-05T02:44:21;101272.53;;;8.02;67.38
77776;BME280;66965;43.328;6.668;2023-03-05T02:46:47;101276.09;;;7.83;68.68
77776;BME280;66965;43.328;6.668;2023-03-05T02:49:13;101265.63;;;7.87;68.07
77776;BME280;66965;43.328;6.668;2023-03-05T02:51:38;101261.25;;;7.94;68.00
77776;BME280;66965;43.328;6.668;2023-03-05T02:54:04;101266.44;;;7.98;67.96
77776;BME280;66965;43.328;6.668;2023-03-05T02:56:29;101266.53;;;7.80;67.81
77776;BME280;66965;43.328;6.668;2023-03-05T02:58:55;101260.44;;;7.76;68.60
77776;BME280;66965;43.328;6.668;2023-03-05T03:01:20;101264.78;;;7.87;69.45
77776;BME280;66965;43.328;6.668;2023-03-05T03:03:46;101259.56;;;7.82;69.45
77776;BME280;66965;43.328;6.668;2023-03-05T03:06:11;101264.75;;;7.88;69.31
77776;BME280;66965;43.328;6.668;2023-03-05T03:08:37;101261.28;;;7.91;69.88
77776;BME280;66965;43.328;6.668;2023-03-05T03:11:06;101261.22;;;7.98;69.07
77776;BME280;66965;43.328;6.668;2023-03-05T03:13:32;101263.88;;;7.85;68.40
77776;BME280;66965;43.328;6.668;2023-03-05T03:16:06;101258.75;;;7.59;69.24
77776;BME280;66965;43.328;6.668;2023-03-05T03:18:32;101261.34;;;7.66;69.90
77776;BME280;66965;43.328;6.668;2023-03-05T03:20:57;101258.72;;;7.72;69.74
77776;BME280;66965;43.328;6.668;2023-03-05T03:23:23;101249.16;;;7.65;69.24
77776;BME280;66965;43.328;6.668;2023-03-05T03:25:49;101259.63;;;7.49;69.66
77776;BME280;66965;43.328;6.668;2023-03-05T03:28:14;101252.66;;;7.67;70.24
77776;BME280;66965;43.328;6.668;2023-03-05T03:30:40;101249.13;;;7.79;69.85
77776;BME280;66965;43.328;6.668;2023-03-05T03:33:05;101255.16;;;7.90;68.96
77776;BME280;66965;43.328;6.668;2023-03-05T03:35:30;101248.28;;;7.79;68.83
77776;BME280;66965;43.328;6.668;2023-03-05T03:37:56;101248.28;;;7.74;68.92
77776;BME280;66965;43.328;6.668;2023-03-05T03:40:21;101248.28;;;7.72;70.00
77776;BME280;66965;43.328;6.668;2023-03-05T03:42:47;101243.97;;;7.55;69.87
77776;BME280;66965;43.328;6.668;2023-03-05T03:45:12;101247.47;;;7.45;69.78
77776;BME280;66965;43.328;6.668;2023-03-05T03:47:38;101250.06;;;7.43;69.12
77776;BME280;66965;43.328;6.668;2023-03-05T03:50:04;101254.44;;;7.38;69.49
77776;BME280;66965;43.328;6.668;2023-03-05T03:52:29;101254.44;;;7.43;69.33
77776;BME280;66965;43.328;6.668;2023-03-05T03:54:55;101256.13;;;7.57;70.08
77776;BME280;66965;43.328;6.668;2023-03-05T03:57:29;101249.19;;;7.67;69.70
77776;BME280;66965;43.328;6.668;2023-03-05T03:59:54;101246.59;;;7.56;70.38
77776;BME280;66965;43.328;6.668;2023-03-05T04:02:20;101242.25;;;7.49;70.54
77776;BME280;66965;43.328;6.668;2023-03-05T04:04:45;101243.13;;;7.45;70.57
77776;BME280;66965;43.328;6.668;2023-03-05T04:07:11;101241.38;;;7.49;70.75
77776;BME280;66965;43.328;6.668;2023-03-05T04:09:37;101241.41;;;7.46;70.77
77776;BME280;66965;43.328;6.668;2023-03-05T04:12:02;101240.53;;;7.24;70.68
77776;BME280;66965;43.328;6.668;2023-03-05T04:14:28;101243.13;;;7.44;70.67
77776;BME280;66965;43.328;6.668;2023-03-05T04:16:53;101237.91;;;7.38;71.68
77776;BME280;66965;43.328;6.668;2023-03-05T04:19:19;101236.16;;;7.50;71.11
77776;BME280;66965;43.328;6.668;2023-03-05T04:21:44;101230.97;;;7.34;71.21
77776;BME280;66965;43.328;6.668;2023-03-05T04:24:10;101237.91;;;7.38;72.09
77776;BME280;66965;43.328;6.668;2023-03-05T04:26:35;101233.56;;;7.44;71.92
77776;BME280;66965;43.328;6.668;2023-03-05T04:29:01;101239.69;;;7.34;71.52
77776;BME280;66965;43.328;6.668;2023-03-05T04:31:26;101225.78;;;7.00;71.94
77776;BME280;66965;43.328;6.668;2023-03-05T04:33:51;101228.41;;;7.02;73.26
77776;BME280;66965;43.328;6.668;2023-03-05T04:36:17;101231.88;;;7.18;72.87
77776;BME280;66965;43.328;6.668;2023-03-05T04:38:42;101230.13;;;7.12;72.68
77776;BME280;66965;43.328;6.668;2023-03-05T04:41:08;101225.75;;;7.22;73.23
77776;BME280;66965;43.328;6.668;2023-03-05T04:43:34;101231.00;;;7.26;72.60
77776;BME280;66965;43.328;6.668;2023-03-05T04:45:59;101226.66;;;7.14;73.16
77776;BME280;66965;43.328;6.668;2023-03-05T04:48:25;101217.09;;;7.03;72.90
77776;BME280;66965;43.328;6.668;2023-03-05T04:50:50;101224.94;;;6.92;72.87
77776;BME280;66965;43.328;6.668;2023-03-05T04:53:15;101228.41;;;6.97;73.43
77776;BME280;66965;43.328;6.668;2023-03-05T04:55:42;101225.81;;;6.99;73.64
77776;BME280;66965;43.328;6.668;2023-03-05T04:58:07;101222.31;;;6.79;73.24
77776;BME280;66965;43.328;6.668;2023-03-05T05:00:33;101228.41;;;6.79;74.56
77776;BME280;66965;43.328;6.668;2023-03-05T05:02:58;101225.81;;;6.93;73.81
77776;BME280;66965;43.328;6.668;2023-03-05T05:05:28;101216.25;;;7.01;73.26
77776;BME280;66965;43.328;6.668;2023-03-05T05:07:55;101222.31;;;6.95;73.23
77776;BME280;66965;43.328;6.668;2023-03-05T05:10:20;101222.31;;;6.86;73.95
77776;BME280;66965;43.328;6.668;2023-03-05T05:12:46;101216.25;;;6.93;73.88
77776;BME280;66965;43.328;6.668;2023-03-05T05:15:11;101217.09;;;7.03;73.01
77776;BME280;66965;43.328;6.668;2023-03-05T05:17:37;101218.84;;;7.01;72.98
77776;BME280;66965;43.328;6.668;2023-03-05T05:20:04;101220.56;;;6.97;73.06
77776;BME280;66965;43.328;6.668;2023-03-05T05:22:32;101222.31;;;6.85;73.05
77776;BME280;66965;43.328;6.668;2023-03-05T05:24:58;101220.56;;;6.81;73.95
77776;BME280;66965;43.328;6.668;2023-03-05T05:27:24;101219.72;;;6.89;73.40
77776;BME280;66965;43.328;6.668;2023-03-05T05:29:49;101220.59;;;6.88;73.28
77776;BME280;66965;43.328;6.668;2023-03-05T05:32:16;101224.03;;;6.78;73.12
77776;BME280;66965;43.328;6.668;2023-03-05T05:34:42;101222.31;;;6.74;74.00
77776;BME280;66965;43.328;6.668;2023-03-05T05:37:07;101223.19;;;6.76;73.48
77776;BME280;66965;43.328;6.668;2023-03-05T05:39:34;101226.63;;;6.58;73.71
77776;BME280;66965;43.328;6.668;2023-03-05T05:41:59;101234.44;;;6.65;74.23
77776;BME280;66965;43.328;6.668;2023-03-05T05:44:25;101229.25;;;6.74;73.62
77776;BME280;66965;43.328;6.668;2023-03-05T05:46:50;101228.41;;;6.93;72.50
77776;BME280;66965;43.328;6.668;2023-03-05T05:49:15;101231.00;;;6.97;71.88
77776;BME280;66965;43.328;6.668;2023-03-05T05:51:41;101222.34;;;7.04;71.54
77776;BME280;66965;43.328;6.668;2023-03-05T05:54:06;101224.94;;;7.07;69.78
77776;BME280;66965;43.328;6.668;2023-03-05T05:56:32;101221.44;;;7.19;69.64
77776;BME280;66965;43.328;6.668;2023-03-05T05:58:58;101219.72;;;7.12;69.24
77776;BME280;66965;43.328;6.668;2023-03-05T06:01:26;101222.31;;;7.09;68.35
77776;BME280;66965;43.328;6.668;2023-03-05T06:03:53;101226.63;;;7.22;68.73
77776;BME280;66965;43.328;6.668;2023-03-05T06:06:20;101224.94;;;7.12;69.00
77776;BME280;66965;43.328;6.668;2023-03-05T06:08:46;101225.81;;;7.02;69.93
77776;BME280;66965;43.328;6.668;2023-03-05T06:11:12;101225.81;;;6.82;70.66
77776;BME280;66965;43.328;6.668;2023-03-05T06:13:37;101223.19;;;6.79;70.88
77776;BME280;66965;43.328;6.668;2023-03-05T06:16:06;101225.78;;;6.84;71.75
77776;BME280;66965;43.328;6.668;2023-03-05T06:18:33;101227.53;;;6.86;71.96
77776;BME280;66965;43.328;6.668;2023-03-05T06:21:01;101237.97;;;6.98;71.94
77776;BME280;66965;43.328;6.668;2023-03-05T06:23:27;101226.66;;;7.18;72.12
77776;BME280;66965;43.328;6.668;2023-03-05T06:25:53;101241.44;;;7.23;71.68
77776;BME280;66965;43.328;6.668;2023-03-05T06:28:19;101238.81;;;7.28;72.39
77776;BME280;66965;43.328;6.668;2023-03-05T06:30:45;101239.69;;;7.37;71.88
77776;BME280;66965;43.328;6.668;2023-03-05T06:33:10;101237.06;;;7.36;71.33
77776;BME280;66965;43.328;6.668;2023-03-05T06:35:39;101236.16;;;7.56;72.21
77776;BME280;66965;43.328;6.668;2023-03-05T06:38:08;101233.56;;;7.56;71.02
77776;BME280;66965;43.328;6.668;2023-03-05T06:40:34;101231.81;;;7.54;71.22
77776;BME280;66965;43.328;6.668;2023-03-05T06:42:59;101234.38;;;7.66;70.89
77776;BME280;66965;43.328;6.668;2023-03-05T06:45:25;101239.59;;;7.75;70.33
77776;BME280;66965;43.328;6.668;2023-03-05T06:47:51;101236.13;;;7.73;70.11
77776;BME280;66965;43.328;6.668;2023-03-05T06:50:16;101239.50;;;7.96;70.66
77776;BME280;66965;43.328;6.668;2023-03-05T06:52:42;101240.38;;;7.91;69.15
77776;BME280;66965;43.328;6.668;2023-03-05T06:55:08;101240.31;;;8.10;68.47
77776;BME280;66965;43.328;6.668;2023-03-05T06:57:35;101244.28;;;8.78;68.61
77776;BME280;66965;43.328;6.668;2023-03-05T07:00:01;101249.38;;;8.98;67.36
77776;BME280;66965;43.328;6.668;2023-03-05T07:02:26;101239.50;;;9.31;66.05
77776;BME280;66965;43.328;6.668;2023-03-05T07:04:51;101253.22;;;9.54;64.09
77776;BME280;66965;43.328;6.668;2023-03-05T07:07:17;101248.28;;;10.03;62.00
77776;BME280;66965;43.328;6.668;2023-03-05T07:09:42;101243.59;;;9.57;61.79
77776;BME280;66965;43.328;6.668;2023-03-05T07:12:10;101249.28;;;9.10;64.40
77776;BME280;66965;43.328;6.668;2023-03-05T07:14:37;101249.25;;;9.14;64.57
77776;BME280;66965;43.328;6.668;2023-03-05T07:17:04;101242.25;;;9.16;64.67
77776;BME280;66965;43.328;6.668;2023-03-05T07:19:30;101245.97;;;8.86;66.55
77776;BME280;66965;43.328;6.668;2023-03-05T07:21:55;101254.84;;;8.61;64.59
77776;BME280;66965;43.328;6.668;2023-03-05T07:24:21;101257.47;;;8.61;64.00
77776;BME280;66965;43.328;6.668;2023-03-05T07:26:48;101259.25;;;8.58;63.58
77776;BME280;66965;43.328;6.668;2023-03-05T07:29:14;101253.78;;;8.91;63.96
77776;BME280;66965;43.328;6.668;2023-03-05T07:31:39;101260.72;;;8.98;66.91
77776;BME280;66965;43.328;6.668;2023-03-05T07:34:05;101261.44;;;9.15;67.25
77776;BME280;66965;43.328;6.668;2023-03-05T07:36:31;101264.78;;;9.31;67.34
77776;BME280;66965;43.328;6.668;2023-03-05T07:38:59;101267.28;;;9.43;67.03
77776;BME280;66965;43.328;6.668;2023-03-05T07:41:24;101260.16;;;9.57;66.71
77776;BME280;66965;43.328;6.668;2023-03-05T07:43:54;101262.00;;;9.49;66.40
77776;BME280;66965;43.328;6.668;2023-03-05T07:46:22;101265.41;;;9.59;65.92
77776;BME280;66965;43.328;6.668;2023-03-05T07:48:48;101266.16;;;9.70;65.23
77776;BME280;66965;43.328;6.668;2023-03-05T07:51:16;101262.44;;;9.87;65.13
77776;BME280;66965;43.328;6.668;2023-03-05T07:53:43;101274.59;;;9.96;65.34
77776;BME280;66965;43.328;6.668;2023-03-05T07:56:09;101272.78;;;10.01;65.95
77776;BME280;66965;43.328;6.668;2023-03-05T07:58:35;101271.88;;;10.05;65.50
77776;BME280;66965;43.328;6.668;2023-03-05T08:01:00;101270.78;;;10.23;65.46
77776;BME280;66965;43.328;6.668;2023-03-05T08:03:26;101269.50;;;10.52;64.53
77776;BME280;66965;43.328;6.668;2023-03-05T08:05:51;101270.13;;;11.26;62.00
77776;BME280;66965;43.328;6.668;2023-03-05T08:08:17;101263.00;;;12.26;59.34
77776;BME280;66965;43.328;6.668;2023-03-05T08:10:43;101268.84;;;13.15;56.42
77776;BME280;66965;43.328;6.668;2023-03-05T08:13:08;101272.09;;;13.60;54.67
77776;BME280;66965;43.328;6.668;2023-03-05T08:15:36;101267.22;;;14.09;53.87
77776;BME280;66965;43.328;6.668;2023-03-05T08:18:01;101273.09;;;14.48;53.14
77776;BME280;66965;43.328;6.668;2023-03-05T08:20:27;101273.78;;;14.55;50.98
77776;BME280;66965;43.328;6.668;2023-03-05T08:22:52;101276.78;;;14.72;51.85
77776;BME280;66965;43.328;6.668;2023-03-05T08:25:18;101267.97;;;15.27;49.62
77776;BME280;66965;43.328;6.668;2023-03-05T08:27:45;101268.50;;;14.55;50.42
77776;BME280;66965;43.328;6.668;2023-03-05T08:30:14;101272.78;;;15.40;49.24
77776;BME280;66965;43.328;6.668;2023-03-05T08:32:40;101269.50;;;15.06;48.97
77776;BME280;66965;43.328;6.668;2023-03-05T08:35:06;101259.53;;;15.16;48.09
77776;BME280;66965;43.328;6.668;2023-03-05T08:37:33;101258.88;;;15.85;47.21
77776;BME280;66965;43.328;6.668;2023-03-05T08:39:59;101257.50;;;16.23;46.69
77776;BME280;66965;43.328;6.668;2023-03-05T08:42:24;101259.63;;;16.36;45.54
77776;BME280;66965;43.328;6.668;2023-03-05T08:44:50;101256.28;;;16.08;46.87
77776;BME280;66965;43.328;6.668;2023-03-05T08:47:16;101265.53;;;16.43;46.28
77776;BME280;66965;43.328;6.668;2023-03-05T08:49:42;101262.69;;;16.94;43.56
77776;BME280;66965;43.328;6.668;2023-03-05T08:52:07;101256.75;;;16.66;44.74
77776;BME280;66965;43.328;6.668;2023-03-05T08:54:33;101255.22;;;16.60;44.55
77776;BME280;66965;43.328;6.668;2023-03-05T08:56:58;101253.13;;;16.90;43.66
77776;BME280;66965;43.328;6.668;2023-03-05T08:59:24;101249.22;;;17.62;42.55
77776;BME280;66965;43.328;6.668;2023-03-05T09:01:49;101251.50;;;16.64;44.44
77776;BME280;66965;43.328;6.668;2023-03-05T09:04:15;101257.75;;;16.85;45.15
77776;BME280;66965;43.328;6.668;2023-03-05T09:06:40;101257.53;;;17.93;41.15
77776;BME280;66965;43.328;6.668;2023-03-05T09:09:07;101259.31;;;17.52;42.23
77776;BME280;66965;43.328;6.668;2023-03-05T09:11:34;101254.75;;;17.14;43.02
77776;BME280;66965;43.328;6.668;2023-03-05T09:14:02;101246.81;;;17.96;41.05
77776;BME280;66965;43.328;6.668;2023-03-05T09:16:27;101257.31;;;18.18;40.79
77776;BME280;66965;43.328;6.668;2023-03-05T09:18:53;101254.50;;;17.82;41.78
77776;BME280;66965;43.328;6.668;2023-03-05T09:21:18;101255.63;;;18.54;40.83
77776;BME280;66965;43.328;6.668;2023-03-05T09:23:44;101248.78;;;18.30;41.52
77776;BME280;66965;43.328;6.668;2023-03-05T09:26:12;101248.59;;;17.96;42.01
77776;BME280;66965;43.328;6.668;2023-03-05T09:28:39;101259.53;;;18.46;40.71
77776;BME280;66965;43.328;6.668;2023-03-05T09:31:05;101259.34;;;19.05;38.89
77776;BME280;66965;43.328;6.668;2023-03-05T09:33:32;101250.81;;;19.85;36.17
77776;BME280;66965;43.328;6.668;2023-03-05T09:35:58;101252.84;;;17.80;42.79
77776;BME280;66965;43.328;6.668;2023-03-05T09:38:24;101252.94;;;17.78;42.43
77776;BME280;66965;43.328;6.668;2023-03-05T09:46:42;101240.84;;;17.91;42.48
77776;BME280;66965;43.328;6.668;2023-03-05T09:49:21;101240.19;;;17.86;42.74
77776;BME280;66965;43.328;6.668;2023-03-05T09:51:59;101238.97;;;18.51;40.18
77776;BME280;66965;43.328;6.668;2023-03-05T09:54:37;101235.28;;;18.16;41.77
77776;BME280;66965;43.328;6.668;2023-03-05T09:57:08;101238.53;;;18.78;39.58
77776;BME280;66965;43.328;6.668;2023-03-05T09:59:57;101233.00;;;18.46;40.70
77776;BME280;66965;43.328;6.668;2023-03-05T10:02:29;101235.00;;;18.22;41.77
77776;BME280;66965;43.328;6.668;2023-03-05T10:05:12;101229.56;;;18.44;40.78
77776;BME280;66965;43.328;6.668;2023-03-05T10:07:42;101223.19;;;18.48;41.21
77776;BME280;66965;43.328;6.668;2023-03-05T10:10:22;101230.44;;;18.44;40.97
77776;BME280;66965;43.328;6.668;2023-03-05T10:12:53;101224.75;;;18.33;42.38
77776;BME280;66965;43.328;6.668;2023-03-05T10:15:24;101226.56;;;18.51;40.45
77776;BME280;66965;43.328;6.668;2023-03-05T10:28:04;101224.22;;;17.05;44.78
77776;BME280;66965;43.328;6.668;2023-03-05T10:33:37;101222.56;;;16.15;49.96
77776;BME280;66965;43.328;6.668;2023-03-05T10:47:14;101218.16;;;14.04;56.11
77776;BME280;66965;43.328;6.668;2023-03-05T10:49:48;101217.47;;;13.97;56.28
77776;BME280;66965;43.328;6.668;2023-03-05T10:52:20;101210.03;;;13.81;55.97
77776;BME280;66965;43.328;6.668;2023-03-05T10:54:48;101208.91;;;13.26;59.40
77776;BME280;66965;43.328;6.668;2023-03-05T10:57:23;101208.25;;;13.50;59.38
77776;BME280;66965;43.328;6.668;2023-03-05T10:59:57;101212.28;;;13.31;60.93
77776;BME280;66965;43.328;6.668;2023-03-05T11:02:25;101206.63;;;13.46;60.41
77776;BME280;66965;43.328;6.668;2023-03-05T11:04:51;101198.28;;;13.61;59.80
77776;BME280;66965;43.328;6.668;2023-03-05T11:10:01;101190.16;;;14.00;59.03
77776;BME280;66965;43.328;6.668;2023-03-05T11:12:30;101180.72;;;13.93;59.50
77776;BME280;66965;43.328;6.668;2023-03-05T11:17:44;101182.50;;;13.91;58.92
77776;BME280;66965;43.328;6.668;2023-03-05T11:23:19;101170.06;;;13.96;57.96
77776;BME280;66965;43.328;6.668;2023-03-05T11:26:21;101168.44;;;13.92;57.99
77776;BME280;66965;43.328;6.668;2023-03-05T11:31:22;101155.88;;;14.00;58.26
77776;BME280;66965;43.328;6.668;2023-03-05T11:36:35;101157.59;;;13.72;59.24
77776;BME280;66965;43.328;6.668;2023-03-05T11:39:13;101147.75;;;14.07;57.18
77776;BME280;66965;43.328;6.668;2023-03-05T11:41:47;101148.44;;;14.14;56.79
77776;BME280;66965;43.328;6.668;2023-03-05T11:46:53;101136.44;;;14.04;58.03
77776;BME280;66965;43.328;6.668;2023-03-05T11:49:24;101130.66;;;13.91;55.89
77776;BME280;66965;43.328;6.668;2023-03-05T11:54:24;101130.13;;;14.37;56.12
77776;BME280;66965;43.328;6.668;2023-03-05T11:56:53;101126.25;;;14.49;54.81
77776;BME280;66965;43.328;6.668;2023-03-05T11:59:25;101121.53;;;14.58;55.65
77776;BME280;66965;43.328;6.668;2023-03-05T12:01:53;101124.47;;;14.75;55.03
77776;BME280;66965;43.328;6.668;2023-03-05T12:04:20;101116.78;;;14.69;53.96
77776;BME280;66965;43.328;6.668;2023-03-05T12:07:00;101118.72;;;14.64;54.07
77776;BME280;66965;43.328;6.668;2023-03-05T12:09:42;101113.34;;;14.92;53.94
77776;BME280;66965;43.328;6.668;2023-03-05T12:17:53;101101.28;;;15.10;53.11
77776;BME280;66965;43.328;6.668;2023-03-05T12:23:17;101091.25;;;15.19;52.65
77776;BME280;66965;43.328;6.668;2023-03-05T12:25:51;101093.78;;;15.47;52.29
77776;BME280;66965;43.328;6.668;2023-03-05T12:31:02;101069.38;;;15.64;51.56
77776;BME280;66965;43.328;6.668;2023-03-05T12:38:53;101073.47;;;15.49;53.06
77776;BME280;66965;43.328;6.668;2023-03-05T12:46:38;101066.47;;;15.48;52.58
77776;BME280;66965;43.328;6.668;2023-03-05T12:51:46;101064.47;;;15.30;52.39
77776;BME280;66965;43.328;6.668;2023-03-05T12:56:47;101051.59;;;15.44;52.74
77776;BME280;66965;43.328;6.668;2023-03-05T12:59:14;101046.91;;;15.75;51.28
77776;BME280;66965;43.328;6.668;2023-03-05T13:01:47;101043.75;;;15.87;51.24
77776;BME280;66965;43.328;6.668;2023-03-05T13:04:18;101043.16;;;16.02;50.12
77776;BME280;66965;43.328;6.668;2023-03-05T13:06:57;101035.84;;;16.31;49.34
77776;BME280;66965;43.328;6.668;2023-03-05T13:09:25;101035.53;;;16.38;48.39
77776;BME280;66965;43.328;6.668;2023-03-05T13:11:56;101024.66;;;16.66;48.30
77776;BME280;66965;43.328;6.668;2023-03-05T13:16:53;101024.72;;;16.85;47.69
77776;BME280;66965;43.328;6.668;2023-03-05T13:19:19;101011.06;;;17.33;46.84
77776;BME280;66965;43.328;6.668;2023-03-05T13:22:02;101017.66;;;17.99;44.58
77776;BME280;66965;43.328;6.668;2023-03-05T13:24:28;101010.56;;;18.69;42.46
77776;BME280;66965;43.328;6.668;2023-03-05T13:26:54;101020.03;;;19.08;40.32
77776;BME280;66965;43.328;6.668;2023-03-05T13:29:20;101017.41;;;19.87;39.69
77776;BME280;66965;43.328;6.668;2023-03-05T13:39:23;101010.81;;;24.00;31.02
77776;BME280;66965;43.328;6.668;2023-03-05T13:41:58;101014.44;;;25.27;28.94
77776;BME280;66965;43.328;6.668;2023-03-05T13:44:24;101018.56;;;25.20;28.59
77776;BME280;66965;43.328;6.668;2023-03-05T13:46:49;101009.66;;;25.30;27.71
77776;BME280;66965;43.328;6.668;2023-03-05T13:49:17;101012.31;;;25.86;26.73
77776;BME280;66965;43.328;6.668;2023-03-05T13:51:51;101018.16;;;24.91;27.31
77776;BME280;66965;43.328;6.668;2023-03-05T13:54:18;101015.91;;;24.74;27.94
77776;BME280;66965;43.328;6.668;2023-03-05T13:56:52;101009.22;;;26.02;25.69
77776;BME280;66965;43.328;6.668;2023-03-05T13:59:21;101010.28;;;26.21;25.38
77776;BME280;66965;43.328;6.668;2023-03-05T14:01:47;101006.13;;;25.08;27.46
77776;BME280;66965;43.328;6.668;2023-03-05T14:09:49;100998.59;;;25.57;26.33
77776;BME280;66965;43.328;6.668;2023-03-05T14:14:54;101000.88;;;25.40;26.20
77776;BME280;66965;43.328;6.668;2023-03-05T14:22:48;100988.44;;;24.94;28.39
77776;BME280;66965;43.328;6.668;2023-03-05T14:27:51;100981.97;;;25.30;27.32
77776;BME280;66965;43.328;6.668;2023-03-05T14:30:19;100975.38;;;25.67;26.21
77776;BME280;66965;43.328;6.668;2023-03-05T14:32:46;100985.25;;;26.10;25.94
77776;BME280;66965;43.328;6.668;2023-03-05T14:35:22;100972.28;;;26.46;25.10
77776;BME280;66965;43.328;6.668;2023-03-05T14:37:49;100971.78;;;26.21;25.96
77776;BME280;66965;43.328;6.668;2023-03-05T14:40:21;100963.53;;;26.02;26.98